sensor_id;sensor_type;location;lat;lon;timestamp;temperature;humidity
74101;DHT22;62462;52.530;21.682;2023-03-01T00:01:59;1.90;63.80
74101;DHT22;62462;52.530;21.682;2023-03-01T00:04:25;2.00;63.60
74101;DHT22;62462;52.530;21.682;2023-03-01T00:06:51;2.10;63.30
74101;DHT22;62462;52.530;21.682;2023-03-01T00:09:17;2.10;62.90
74101;DHT22;62462;52.530;21.682;2023-03-01T00:11:43;2.20;62.80
74101;DHT22;62462;52.530;21.682;2023-03-01T00:14:09;2.20;62.60
74101;DHT22;62462;52.530;21.682;2023-03-01T00:16:42;2.30;62.50
74101;DHT22;62462;52.530;21.682;2023-03-01T00:19:12;2.30;62.40
74101;DHT22;62462;52.530;21.682;2023-03-01T00:21:39;2.30;62.10
74101;DHT22;62462;52.530;21.682;2023-03-01T00:24:05;2.20;62.40
74101;DHT22;62462;52.530;21.682;2023-03-01T00:26:31;1.90;63.20
74101;DHT22;62462;52.530;21.682;2023-03-01T00:28:58;1.70;64.00
74101;DHT22;62462;52.530;21.682;2023-03-01T00:31:27;1.60;64.20
74101;DHT22;62462;52.530;21.682;2023-03-01T00:33:57;1.60;64.60
74101;DHT22;62462;52.530;21.682;2023-03-01T00:36:25;1.60;64.50
74101;DHT22;62462;52.530;21.682;2023-03-01T00:38:51;1.70;64.30
74101;DHT22;62462;52.530;21.682;2023-03-01T00:41:18;1.80;64.10
74101;DHT22;62462;52.530;21.682;2023-03-01T00:43:45;1.90;63.80
74101;DHT22;62462;52.530;21.682;2023-03-01T00:46:19;1.90;63.60
74101;DHT22;62462;52.530;21.682;2023-03-01T00:48:45;2.00;63.30
74101;DHT22;62462;52.530;21.682;2023-03-01T00:51:17;2.00;63.20
74101;DHT22;62462;52.530;21.682;2023-03-01T00:53:43;2.00;63.20
74101;DHT22;62462;52.530;21.682;2023-03-01T00:56:11;2.00;63.20
74101;DHT22;62462;52.530;21.682;2023-03-01T00:58:37;2.00;63.20
74101;DHT22;62462;52.530;21.682;2023-03-01T01:01:15;2.00;63.10
74101;DHT22;62462;52.530;21.682;2023-03-01T01:04:01;1.90;63.50
74101;DHT22;62462;52.530;21.682;2023-03-01T01:06:39;1.60;64.00
74101;DHT22;62462;52.530;21.682;2023-03-01T01:09:09;1.50;64.80
74101;DHT22;62462;52.530;21.682;2023-03-01T01:11:46;1.40;65.20
74101;DHT22;62462;52.530;21.682;2023-03-01T01:14:12;1.40;65.30
74101;DHT22;62462;52.530;21.682;2023-03-01T01:16:38;1.40;65.80
74101;DHT22;62462;52.530;21.682;2023-03-01T01:19:04;1.30;65.90
74101;DHT22;62462;52.530;21.682;2023-03-01T01:21:30;1.30;65.90
74101;DHT22;62462;52.530;21.682;2023-03-01T01:23:57;1.30;66.30
74101;DHT22;62462;52.530;21.682;2023-03-01T01:26:29;1.20;66.40
74101;DHT22;62462;52.530;21.682;2023-03-01T01:28:56;1.30;67.40
74101;DHT22;62462;52.530;21.682;2023-03-01T01:31:23;1.40;66.30
74101;DHT22;62462;52.530;21.682;2023-03-01T01:33:50;1.40;66.10
74101;DHT22;62462;52.530;21.682;2023-03-01T01:36:16;1.50;66.00
74101;DHT22;62462;52.530;21.682;2023-03-01T01:38:42;1.50;65.50
74101;DHT22;62462;52.530;21.682;2023-03-01T01:41:10;1.50;65.30
74101;DHT22;62462;52.530;21.682;2023-03-01T01:43:39;1.50;65.10
74101;DHT22;62462;52.530;21.682;2023-03-01T01:48:49;1.50;65.70
74101;DHT22;62462;52.530;21.682;2023-03-01T01:51:20;1.40;66.00
74101;DHT22;62462;52.530;21.682;2023-03-01T01:53:51;1.40;66.00
74101;DHT22;62462;52.530;21.682;2023-03-01T01:56:18;1.40;66.10
74101;DHT22;62462;52.530;21.682;2023-03-01T01:58:46;1.50;66.00
74101;DHT22;62462;52.530;21.682;2023-03-01T02:01:13;1.50;66.20
74101;DHT22;62462;52.530;21.682;2023-03-01T02:03:39;1.30;67.00
74101;DHT22;62462;52.530;21.682;2023-03-01T02:08:46;1.10;68.10
74101;DHT22;62462;52.530;21.682;2023-03-01T02:11:13;1.10;68.60
74101;DHT22;62462;52.530;21.682;2023-03-01T02:13:43;1.00;69.20
74101;DHT22;62462;52.530;21.682;2023-03-01T02:16:11;0.90;69.20
74101;DHT22;62462;52.530;21.682;2023-03-01T02:18:39;0.90;69.10
74101;DHT22;62462;52.530;21.682;2023-03-01T02:21:44;0.90;70.60
74101;DHT22;62462;52.530;21.682;2023-03-01T02:24:25;0.90;69.60
74101;DHT22;62462;52.530;21.682;2023-03-01T02:26:55;0.90;70.00
74101;DHT22;62462;52.530;21.682;2023-03-01T02:29:23;0.90;70.40
74101;DHT22;62462;52.530;21.682;2023-03-01T02:31:51;0.80;70.50
74101;DHT22;62462;52.530;21.682;2023-03-01T02:34:21;0.80;70.60
74101;DHT22;62462;52.530;21.682;2023-03-01T02:37:12;0.80;70.80
74101;DHT22;62462;52.530;21.682;2023-03-01T02:39:46;0.80;71.10
74101;DHT22;62462;52.530;21.682;2023-03-01T02:42:18;0.80;70.70
74101;DHT22;62462;52.530;21.682;2023-03-01T02:44:48;1.00;70.20
74101;DHT22;62462;52.530;21.682;2023-03-01T02:47:14;1.10;69.70
74101;DHT22;62462;52.530;21.682;2023-03-01T02:49:39;1.10;69.80
74101;DHT22;62462;52.530;21.682;2023-03-01T02:54:53;1.00;69.90
74101;DHT22;62462;52.530;21.682;2023-03-01T02:57:25;1.10;70.10
74101;DHT22;62462;52.530;21.682;2023-03-01T02:59:54;1.10;69.80
74101;DHT22;62462;52.530;21.682;2023-03-01T03:02:24;1.20;69.60
74101;DHT22;62462;52.530;21.682;2023-03-01T03:05:10;1.20;69.10
74101;DHT22;62462;52.530;21.682;2023-03-01T03:07:39;1.30;68.80
74101;DHT22;62462;52.530;21.682;2023-03-01T03:10:08;1.30;68.60
74101;DHT22;62462;52.530;21.682;2023-03-01T03:12:34;1.40;68.50
74101;DHT22;62462;52.530;21.682;2023-03-01T03:15:00;1.40;68.10
74101;DHT22;62462;52.530;21.682;2023-03-01T03:17:26;1.40;68.50
74101;DHT22;62462;52.530;21.682;2023-03-01T03:19:52;1.20;69.00
74101;DHT22;62462;52.530;21.682;2023-03-01T03:22:17;1.10;69.50
74101;DHT22;62462;52.530;21.682;2023-03-01T03:24:43;1.00;70.00
74101;DHT22;62462;52.530;21.682;2023-03-01T03:27:09;0.90;70.70
74101;DHT22;62462;52.530;21.682;2023-03-01T03:29:34;0.80;71.20
74101;DHT22;62462;52.530;21.682;2023-03-01T03:32:00;0.80;71.90
74101;DHT22;62462;52.530;21.682;2023-03-01T03:34:26;0.80;72.00
74101;DHT22;62462;52.530;21.682;2023-03-01T03:36:55;0.80;72.30
74101;DHT22;62462;52.530;21.682;2023-03-01T03:39:28;0.80;72.80
74101;DHT22;62462;52.530;21.682;2023-03-01T03:41:54;0.80;72.90
74101;DHT22;62462;52.530;21.682;2023-03-01T03:44:21;0.80;73.10
74101;DHT22;62462;52.530;21.682;2023-03-01T03:46:46;0.80;73.40
74101;DHT22;62462;52.530;21.682;2023-03-01T03:49:12;0.80;73.70
74101;DHT22;62462;52.530;21.682;2023-03-01T03:51:38;0.80;73.70
74101;DHT22;62462;52.530;21.682;2023-03-01T03:54:04;0.80;73.60
74101;DHT22;62462;52.530;21.682;2023-03-01T03:56:30;0.90;73.20
74101;DHT22;62462;52.530;21.682;2023-03-01T03:58:56;1.00;73.20
74101;DHT22;62462;52.530;21.682;2023-03-01T04:01:21;1.00;73.10
74101;DHT22;62462;52.530;21.682;2023-03-01T04:03:47;1.00;73.20
74101;DHT22;62462;52.530;21.682;2023-03-01T04:06:14;1.00;73.30
74101;DHT22;62462;52.530;21.682;2023-03-01T04:08:39;1.00;73.20
74101;DHT22;62462;52.530;21.682;2023-03-01T04:11:06;1.00;73.20
74101;DHT22;62462;52.530;21.682;2023-03-01T04:13:50;1.10;72.90
74101;DHT22;62462;52.530;21.682;2023-03-01T04:16:17;1.10;73.20
74101;DHT22;62462;52.530;21.682;2023-03-01T04:18:44;1.10;73.30
74101;DHT22;62462;52.530;21.682;2023-03-01T04:21:10;1.10;73.10
74101;DHT22;62462;52.530;21.682;2023-03-01T04:23:37;1.10;74.00
74101;DHT22;62462;52.530;21.682;2023-03-01T04:26:03;1.20;72.70
74101;DHT22;62462;52.530;21.682;2023-03-01T04:28:31;1.30;72.60
74101;DHT22;62462;52.530;21.682;2023-03-01T04:31:06;1.30;72.70
74101;DHT22;62462;52.530;21.682;2023-03-01T04:33:42;1.20;72.90
74101;DHT22;62462;52.530;21.682;2023-03-01T04:36:09;1.20;72.90
74101;DHT22;62462;52.530;21.682;2023-03-01T04:38:37;1.20;72.90
74101;DHT22;62462;52.530;21.682;2023-03-01T04:41:05;1.30;72.60
74101;DHT22;62462;52.530;21.682;2023-03-01T04:43:31;1.30;72.60
74101;DHT22;62462;52.530;21.682;2023-03-01T04:46:06;1.40;72.50
74101;DHT22;62462;52.530;21.682;2023-03-01T04:48:38;1.40;72.10
74101;DHT22;62462;52.530;21.682;2023-03-01T04:51:04;1.40;72.00
74101;DHT22;62462;52.530;21.682;2023-03-01T04:53:31;1.40;72.10
74101;DHT22;62462;52.530;21.682;2023-03-01T04:55:58;1.40;72.30
74101;DHT22;62462;52.530;21.682;2023-03-01T04:58:27;1.40;72.30
74101;DHT22;62462;52.530;21.682;2023-03-01T05:00:54;1.40;72.30
74101;DHT22;62462;52.530;21.682;2023-03-01T05:03:21;1.50;72.00
74101;DHT22;62462;52.530;21.682;2023-03-01T05:05:49;1.60;71.80
74101;DHT22;62462;52.530;21.682;2023-03-01T05:08:15;1.60;71.40
74101;DHT22;62462;52.530;21.682;2023-03-01T05:10:51;1.60;71.30
74101;DHT22;62462;52.530;21.682;2023-03-01T05:13:18;1.60;71.40
74101;DHT22;62462;52.530;21.682;2023-03-01T05:15:56;1.70;71.60
74101;DHT22;62462;52.530;21.682;2023-03-01T05:18:23;1.70;71.60
74101;DHT22;62462;52.530;21.682;2023-03-01T05:20:51;1.60;71.90
74101;DHT22;62462;52.530;21.682;2023-03-01T05:23:17;1.60;71.90
74101;DHT22;62462;52.530;21.682;2023-03-01T05:25:44;1.60;72.20
74101;DHT22;62462;52.530;21.682;2023-03-01T05:28:13;1.50;72.30
74101;DHT22;62462;52.530;21.682;2023-03-01T05:30:39;1.50;72.40
74101;DHT22;62462;52.530;21.682;2023-03-01T05:33:05;1.60;72.40
74101;DHT22;62462;52.530;21.682;2023-03-01T05:35:36;1.60;72.20
74101;DHT22;62462;52.530;21.682;2023-03-01T05:38:02;1.60;72.40
74101;DHT22;62462;52.530;21.682;2023-03-01T05:40:27;1.60;72.70
74101;DHT22;62462;52.530;21.682;2023-03-01T05:42:56;1.60;72.80
74101;DHT22;62462;52.530;21.682;2023-03-01T05:45:24;1.60;72.80
74101;DHT22;62462;52.530;21.682;2023-03-01T05:47:50;1.50;72.80
74101;DHT22;62462;52.530;21.682;2023-03-01T05:50:19;1.50;73.00
74101;DHT22;62462;52.530;21.682;2023-03-01T05:52:52;1.60;73.10
74101;DHT22;62462;52.530;21.682;2023-03-01T05:55:20;1.60;72.80
74101;DHT22;62462;52.530;21.682;2023-03-01T05:57:46;1.70;72.80
74101;DHT22;62462;52.530;21.682;2023-03-01T06:00:14;1.70;72.50
74101;DHT22;62462;52.530;21.682;2023-03-01T06:02:40;1.70;72.80
74101;DHT22;62462;52.530;21.682;2023-03-01T06:05:07;1.70;72.70
74101;DHT22;62462;52.530;21.682;2023-03-01T06:07:34;1.70;72.80
74101;DHT22;62462;52.530;21.682;2023-03-01T06:10:01;1.70;72.90
74101;DHT22;62462;52.530;21.682;2023-03-01T06:12:30;1.60;73.00
74101;DHT22;62462;52.530;21.682;2023-03-01T06:14:56;1.60;73.50
74101;DHT22;62462;52.530;21.682;2023-03-01T06:17:22;1.60;73.70
74101;DHT22;62462;52.530;21.682;2023-03-01T06:19:48;1.60;73.90
74101;DHT22;62462;52.530;21.682;2023-03-01T06:22:13;1.60;73.90
74101;DHT22;62462;52.530;21.682;2023-03-01T06:24:39;1.50;73.90
74101;DHT22;62462;52.530;21.682;2023-03-01T06:27:05;1.60;74.00
74101;DHT22;62462;52.530;21.682;2023-03-01T06:29:30;1.60;74.10
74101;DHT22;62462;52.530;21.682;2023-03-01T06:31:56;1.60;73.90
74101;DHT22;62462;52.530;21.682;2023-03-01T06:34:22;1.60;73.80
74101;DHT22;62462;52.530;21.682;2023-03-01T06:36:48;1.60;73.80
74101;DHT22;62462;52.530;21.682;2023-03-01T06:39:14;1.70;73.80
74101;DHT22;62462;52.530;21.682;2023-03-01T06:41:39;1.70;73.70
74101;DHT22;62462;52.530;21.682;2023-03-01T06:44:05;1.80;73.40
74101;DHT22;62462;52.530;21.682;2023-03-01T06:46:32;1.80;73.30
74101;DHT22;62462;52.530;21.682;2023-03-01T06:48:58;1.90;73.20
74101;DHT22;62462;52.530;21.682;2023-03-01T06:51:24;2.00;73.30
74101;DHT22;62462;52.530;21.682;2023-03-01T06:53:50;2.10;72.90
74101;DHT22;62462;52.530;21.682;2023-03-01T06:56:16;2.20;72.30
74101;DHT22;62462;52.530;21.682;2023-03-01T06:58:42;2.30;72.10
74101;DHT22;62462;52.530;21.682;2023-03-01T07:01:08;2.40;72.00
74101;DHT22;62462;52.530;21.682;2023-03-01T07:03:34;2.70;71.80
74101;DHT22;62462;52.530;21.682;2023-03-01T07:06:00;2.90;70.20
74101;DHT22;62462;52.530;21.682;2023-03-01T07:08:25;3.00;69.50
74101;DHT22;62462;52.530;21.682;2023-03-01T07:10:58;3.10;69.00
74101;DHT22;62462;52.530;21.682;2023-03-01T07:13:24;3.10;68.40
74101;DHT22;62462;52.530;21.682;2023-03-01T07:15:50;3.30;68.70
74101;DHT22;62462;52.530;21.682;2023-03-01T07:18:16;3.40;68.50
74101;DHT22;62462;52.530;21.682;2023-03-01T07:20:41;3.60;68.40
74101;DHT22;62462;52.530;21.682;2023-03-01T07:23:07;3.80;67.50
74101;DHT22;62462;52.530;21.682;2023-03-01T07:25:33;3.90;66.70
74101;DHT22;62462;52.530;21.682;2023-03-01T07:27:59;3.90;65.80
74101;DHT22;62462;52.530;21.682;2023-03-01T07:30:25;3.90;65.80
74101;DHT22;62462;52.530;21.682;2023-03-01T07:32:53;3.90;65.90
74101;DHT22;62462;52.530;21.682;2023-03-01T07:35:18;4.00;66.20
74101;DHT22;62462;52.530;21.682;2023-03-01T07:37:44;4.10;66.00
74101;DHT22;62462;52.530;21.682;2023-03-01T07:40:11;4.10;65.30
74101;DHT22;62462;52.530;21.682;2023-03-01T07:42:37;4.10;65.70
74101;DHT22;62462;52.530;21.682;2023-03-01T07:45:03;4.20;65.20
74101;DHT22;62462;52.530;21.682;2023-03-01T07:47:29;4.20;65.30
74101;DHT22;62462;52.530;21.682;2023-03-01T07:49:55;4.40;65.30
74101;DHT22;62462;52.530;21.682;2023-03-01T07:52:21;4.50;65.30
74101;DHT22;62462;52.530;21.682;2023-03-01T07:54:46;4.50;63.90
74101;DHT22;62462;52.530;21.682;2023-03-01T07:57:12;4.40;64.60
74101;DHT22;62462;52.530;21.682;2023-03-01T07:59:38;4.40;65.40
74101;DHT22;62462;52.530;21.682;2023-03-01T08:02:04;4.60;65.00
74101;DHT22;62462;52.530;21.682;2023-03-01T08:04:29;4.80;64.40
74101;DHT22;62462;52.530;21.682;2023-03-01T08:06:56;4.90;64.40
74101;DHT22;62462;52.530;21.682;2023-03-01T08:09:22;5.10;64.90
74101;DHT22;62462;52.530;21.682;2023-03-01T08:11:48;5.40;64.40
74101;DHT22;62462;52.530;21.682;2023-03-01T08:14:14;5.40;63.00
74101;DHT22;62462;52.530;21.682;2023-03-01T08:16:39;5.40;62.80
74101;DHT22;62462;52.530;21.682;2023-03-01T08:19:10;5.50;62.40
74101;DHT22;62462;52.530;21.682;2023-03-01T08:21:37;5.40;62.10
74101;DHT22;62462;52.530;21.682;2023-03-01T08:24:04;5.30;62.00
74101;DHT22;62462;52.530;21.682;2023-03-01T08:26:31;5.30;62.90
74101;DHT22;62462;52.530;21.682;2023-03-01T08:28:57;5.40;63.40
74101;DHT22;62462;52.530;21.682;2023-03-01T08:31:25;5.50;62.90
74101;DHT22;62462;52.530;21.682;2023-03-01T08:33:55;5.70;62.90
74101;DHT22;62462;52.530;21.682;2023-03-01T08:36:35;5.90;62.20
74101;DHT22;62462;52.530;21.682;2023-03-01T08:39:02;6.00;61.90
74101;DHT22;62462;52.530;21.682;2023-03-01T08:41:28;6.10;61.30
74101;DHT22;62462;52.530;21.682;2023-03-01T08:43:54;6.10;60.90
74101;DHT22;62462;52.530;21.682;2023-03-01T08:46:28;6.20;60.70
74101;DHT22;62462;52.530;21.682;2023-03-01T08:48:55;6.10;60.10
74101;DHT22;62462;52.530;21.682;2023-03-01T08:51:22;6.10;60.00
74101;DHT22;62462;52.530;21.682;2023-03-01T08:53:48;6.10;59.60
74101;DHT22;62462;52.530;21.682;2023-03-01T08:56:15;6.00;59.90
74101;DHT22;62462;52.530;21.682;2023-03-01T08:58:44;5.90;60.00
74101;DHT22;62462;52.530;21.682;2023-03-01T09:01:12;6.00;60.10
74101;DHT22;62462;52.530;21.682;2023-03-01T09:03:39;6.20;60.30
74101;DHT22;62462;52.530;21.682;2023-03-01T09:06:06;6.20;59.20
74101;DHT22;62462;52.530;21.682;2023-03-01T09:08:43;6.30;59.70
74101;DHT22;62462;52.530;21.682;2023-03-01T09:11:12;6.70;60.00
74101;DHT22;62462;52.530;21.682;2023-03-01T09:13:38;7.00;58.60
74101;DHT22;62462;52.530;21.682;2023-03-01T09:16:06;7.30;59.50
74101;DHT22;62462;52.530;21.682;2023-03-01T09:18:33;7.60;58.90
74101;DHT22;62462;52.530;21.682;2023-03-01T09:21:08;7.90;57.90
74101;DHT22;62462;52.530;21.682;2023-03-01T09:23:35;8.00;57.10
74101;DHT22;62462;52.530;21.682;2023-03-01T09:26:02;8.20;57.20
74101;DHT22;62462;52.530;21.682;2023-03-01T09:28:28;8.30;56.50
74101;DHT22;62462;52.530;21.682;2023-03-01T09:30:58;8.30;55.30
74101;DHT22;62462;52.530;21.682;2023-03-01T09:33:24;8.20;54.20
74101;DHT22;62462;52.530;21.682;2023-03-01T09:35:55;8.00;55.60
74101;DHT22;62462;52.530;21.682;2023-03-01T09:38:20;8.10;56.90
74101;DHT22;62462;52.530;21.682;2023-03-01T09:40:46;8.30;57.00
74101;DHT22;62462;52.530;21.682;2023-03-01T09:43:21;8.50;55.50
74101;DHT22;62462;52.530;21.682;2023-03-01T09:45:50;8.70;55.90
74101;DHT22;62462;52.530;21.682;2023-03-01T09:48:20;8.80;55.40
74101;DHT22;62462;52.530;21.682;2023-03-01T09:50:49;8.90;54.30
74101;DHT22;62462;52.530;21.682;2023-03-01T09:53:18;8.90;54.30
74101;DHT22;62462;52.530;21.682;2023-03-01T09:56:16;8.70;52.70
74101;DHT22;62462;52.530;21.682;2023-03-01T09:59:13;8.50;55.10
74101;DHT22;62462;52.530;21.682;2023-03-01T10:01:46;8.40;54.60
74101;DHT22;62462;52.530;21.682;2023-03-01T10:09:40;8.70;54.90
74101;DHT22;62462;52.530;21.682;2023-03-01T10:12:13;8.90;55.40
74101;DHT22;62462;52.530;21.682;2023-03-01T10:19:51;9.80;53.30
74101;DHT22;62462;52.530;21.682;2023-03-01T10:22:29;9.90;52.40
74101;DHT22;62462;52.530;21.682;2023-03-01T10:24:58;9.90;53.20
74101;DHT22;62462;52.530;21.682;2023-03-01T10:27:44;9.90;51.50
74101;DHT22;62462;52.530;21.682;2023-03-01T10:30:22;9.70;52.20
74101;DHT22;62462;52.530;21.682;2023-03-01T10:32:55;9.70;52.10
74101;DHT22;62462;52.530;21.682;2023-03-01T10:35:25;9.50;53.30
74101;DHT22;62462;52.530;21.682;2023-03-01T10:38:18;9.50;53.50
74101;DHT22;62462;52.530;21.682;2023-03-01T10:41:04;9.20;53.90
74101;DHT22;62462;52.530;21.682;2023-03-01T10:43:48;9.00;54.80
74101;DHT22;62462;52.530;21.682;2023-03-01T10:46:35;8.60;55.80
74101;DHT22;62462;52.530;21.682;2023-03-01T10:51:36;8.60;56.80
74101;DHT22;62462;52.530;21.682;2023-03-01T10:54:04;8.70;57.60
74101;DHT22;62462;52.530;21.682;2023-03-01T10:56:55;8.70;57.40
74101;DHT22;62462;52.530;21.682;2023-03-01T11:02:18;8.40;58.60
74101;DHT22;62462;52.530;21.682;2023-03-01T11:07:53;8.50;58.20
74101;DHT22;62462;52.530;21.682;2023-03-01T11:10:30;8.40;58.40
74101;DHT22;62462;52.530;21.682;2023-03-01T11:13:16;8.20;59.00
74101;DHT22;62462;52.530;21.682;2023-03-01T11:15:42;8.20;59.20
74101;DHT22;62462;52.530;21.682;2023-03-01T11:18:22;8.30;59.70
74101;DHT22;62462;52.530;21.682;2023-03-01T11:20:51;8.50;59.30
74101;DHT22;62462;52.530;21.682;2023-03-01T11:23:19;8.70;58.80
74101;DHT22;62462;52.530;21.682;2023-03-01T11:25:58;9.00;59.30
74101;DHT22;62462;52.530;21.682;2023-03-01T11:28:25;9.40;58.10
74101;DHT22;62462;52.530;21.682;2023-03-01T11:31:03;9.60;56.10
74101;DHT22;62462;52.530;21.682;2023-03-01T11:33:54;9.80;56.70
74101;DHT22;62462;52.530;21.682;2023-03-01T11:39:09;10.10;54.30
74101;DHT22;62462;52.530;21.682;2023-03-01T11:41:39;9.90;54.60
74101;DHT22;62462;52.530;21.682;2023-03-01T11:44:16;9.80;54.80
74101;DHT22;62462;52.530;21.682;2023-03-01T11:52:03;9.70;54.80
74101;DHT22;62462;52.530;21.682;2023-03-01T11:54:38;9.50;55.40
74101;DHT22;62462;52.530;21.682;2023-03-01T12:00:14;9.50;56.40
74101;DHT22;62462;52.530;21.682;2023-03-01T12:03:01;9.40;56.50
74101;DHT22;62462;52.530;21.682;2023-03-01T12:08:38;9.30;57.00
74101;DHT22;62462;52.530;21.682;2023-03-01T12:27:58;9.70;56.30
74101;DHT22;62462;52.530;21.682;2023-03-01T12:47:30;10.30;54.60
74101;DHT22;62462;52.530;21.682;2023-03-01T12:50:26;10.30;55.00
74101;DHT22;62462;52.530;21.682;2023-03-01T12:52:57;10.60;54.70
74101;DHT22;62462;52.530;21.682;2023-03-01T12:55:33;10.90;54.90
74101;DHT22;62462;52.530;21.682;2023-03-01T13:12:44;11.40;51.70
74101;DHT22;62462;52.530;21.682;2023-03-01T13:15:32;11.50;52.00
74101;DHT22;62462;52.530;21.682;2023-03-01T13:20:52;11.90;51.00
74101;DHT22;62462;52.530;21.682;2023-03-01T13:31:08;11.80;50.90
74101;DHT22;62462;52.530;21.682;2023-03-01T13:46:58;12.60;50.10
74101;DHT22;62462;52.530;21.682;2023-03-01T13:49:31;13.10;48.20
74101;DHT22;62462;52.530;21.682;2023-03-01T13:51:58;13.70;46.50
74101;DHT22;62462;52.530;21.682;2023-03-01T13:54:31;14.40;45.50
74101;DHT22;62462;52.530;21.682;2023-03-01T13:57:00;15.10;42.50
74101;DHT22;62462;52.530;21.682;2023-03-01T13:59:26;15.60;41.30
74101;DHT22;62462;52.530;21.682;2023-03-01T14:01:58;15.80;40.80
74101;DHT22;62462;52.530;21.682;2023-03-01T14:09:45;15.60;40.00
74101;DHT22;62462;52.530;21.682;2023-03-01T14:15:29;15.90;40.10
74101;DHT22;62462;52.530;21.682;2023-03-01T14:20:39;16.30;40.90
74101;DHT22;62462;52.530;21.682;2023-03-01T14:23:13;17.50;39.60
74101;DHT22;62462;52.530;21.682;2023-03-01T14:25:55;19.00;36.10
74101;DHT22;62462;52.530;21.682;2023-03-01T14:28:28;18.90;32.60
74101;DHT22;62462;52.530;21.682;2023-03-01T14:30:56;17.30;35.60
74101;DHT22;62462;52.530;21.682;2023-03-01T14:33:31;15.80;38.70
74101;DHT22;62462;52.530;21.682;2023-03-01T14:41:06;12.50;47.00
74101;DHT22;62462;52.530;21.682;2023-03-01T14:43:33;11.90;48.50
74101;DHT22;62462;52.530;21.682;2023-03-01T14:45:59;11.60;49.80
74101;DHT22;62462;52.530;21.682;2023-03-01T14:48:26;11.40;50.80
74101;DHT22;62462;52.530;21.682;2023-03-01T14:50:52;11.40;51.60
74101;DHT22;62462;52.530;21.682;2023-03-01T14:53:29;11.60;51.50
74101;DHT22;62462;52.530;21.682;2023-03-01T14:55:59;12.10;49.50
74101;DHT22;62462;52.530;21.682;2023-03-01T14:58:27;11.80;50.00
74101;DHT22;62462;52.530;21.682;2023-03-01T15:01:02;11.50;51.20
74101;DHT22;62462;52.530;21.682;2023-03-01T15:03:41;11.10;51.90
74101;DHT22;62462;52.530;21.682;2023-03-01T15:06:11;10.80;52.70
74101;DHT22;62462;52.530;21.682;2023-03-01T15:08:42;10.70;53.20
74101;DHT22;62462;52.530;21.682;2023-03-01T15:11:32;10.70;53.80
74101;DHT22;62462;52.530;21.682;2023-03-01T15:13:59;10.60;53.90
74101;DHT22;62462;52.530;21.682;2023-03-01T15:16:29;10.50;54.30
74101;DHT22;62462;52.530;21.682;2023-03-01T15:19:03;11.10;54.40
74101;DHT22;62462;52.530;21.682;2023-03-01T15:21:36;12.60;52.50
74101;DHT22;62462;52.530;21.682;2023-03-01T15:26:53;15.70;42.80
74101;DHT22;62462;52.530;21.682;2023-03-01T15:29:28;16.40;41.80
74101;DHT22;62462;52.530;21.682;2023-03-01T15:32:01;17.00;39.80
74101;DHT22;62462;52.530;21.682;2023-03-01T15:34:34;16.90;38.80
74101;DHT22;62462;52.530;21.682;2023-03-01T15:37:03;16.70;39.10
74101;DHT22;62462;52.530;21.682;2023-03-01T15:39:32;16.60;38.90
74101;DHT22;62462;52.530;21.682;2023-03-01T15:42:12;16.40;38.90
74101;DHT22;62462;52.530;21.682;2023-03-01T15:44:41;16.00;39.70
74101;DHT22;62462;52.530;21.682;2023-03-01T15:47:28;15.50;40.20
74101;DHT22;62462;52.530;21.682;2023-03-01T15:49:55;14.90;41.30
74101;DHT22;62462;52.530;21.682;2023-03-01T15:52:29;14.20;42.50
74101;DHT22;62462;52.530;21.682;2023-03-01T15:55:01;13.40;44.20
74101;DHT22;62462;52.530;21.682;2023-03-01T15:57:27;12.60;45.90
74101;DHT22;62462;52.530;21.682;2023-03-01T15:59:53;11.90;47.50
74101;DHT22;62462;52.530;21.682;2023-03-01T16:02:19;11.40;48.90
74101;DHT22;62462;52.530;21.682;2023-03-01T16:04:46;11.00;50.20
74101;DHT22;62462;52.530;21.682;2023-03-01T16:07:14;10.60;51.50
74101;DHT22;62462;52.530;21.682;2023-03-01T16:09:39;10.30;52.30
74101;DHT22;62462;52.530;21.682;2023-03-01T16:12:08;10.10;52.30
74101;DHT22;62462;52.530;21.682;2023-03-01T16:14:37;9.80;52.80
74101;DHT22;62462;52.530;21.682;2023-03-01T16:17:03;9.50;53.50
74101;DHT22;62462;52.530;21.682;2023-03-01T16:19:28;9.30;54.50
74101;DHT22;62462;52.530;21.682;2023-03-01T16:21:54;9.10;55.40
74101;DHT22;62462;52.530;21.682;2023-03-01T16:24:20;8.90;55.90
74101;DHT22;62462;52.530;21.682;2023-03-01T16:26:46;8.70;56.60
74101;DHT22;62462;52.530;21.682;2023-03-01T16:29:11;8.60;57.80
74101;DHT22;62462;52.530;21.682;2023-03-01T16:31:37;8.50;59.10
74101;DHT22;62462;52.530;21.682;2023-03-01T16:34:03;8.40;60.60
74101;DHT22;62462;52.530;21.682;2023-03-01T16:36:29;8.20;61.40
74101;DHT22;62462;52.530;21.682;2023-03-01T16:38:58;8.20;60.60
74101;DHT22;62462;52.530;21.682;2023-03-01T16:41:24;8.20;60.60
74101;DHT22;62462;52.530;21.682;2023-03-01T16:43:50;8.10;59.90
74101;DHT22;62462;52.530;21.682;2023-03-01T16:46:24;8.10;59.50
74101;DHT22;62462;52.530;21.682;2023-03-01T16:48:51;8.10;59.40
74101;DHT22;62462;52.530;21.682;2023-03-01T16:51:18;8.00;59.70
74101;DHT22;62462;52.530;21.682;2023-03-01T16:53:44;7.90;59.70
74101;DHT22;62462;52.530;21.682;2023-03-01T16:56:11;7.90;59.80
74101;DHT22;62462;52.530;21.682;2023-03-01T17:03:30;7.60;59.80
74101;DHT22;62462;52.530;21.682;2023-03-01T17:05:56;7.30;62.40
74101;DHT22;62462;52.530;21.682;2023-03-01T17:08:21;7.10;62.70
74101;DHT22;62462;52.530;21.682;2023-03-01T17:10:47;7.00;62.30
74101;DHT22;62462;52.530;21.682;2023-03-01T17:13:13;7.00;62.30
74101;DHT22;62462;52.530;21.682;2023-03-01T17:15:42;7.10;62.50
74101;DHT22;62462;52.530;21.682;2023-03-01T17:18:08;7.10;62.20
74101;DHT22;62462;52.530;21.682;2023-03-01T17:20:35;7.10;62.50
74101;DHT22;62462;52.530;21.682;2023-03-01T17:23:01;7.00;62.40
74101;DHT22;62462;52.530;21.682;2023-03-01T17:25:27;6.90;62.30
74101;DHT22;62462;52.530;21.682;2023-03-01T17:27:53;6.90;62.40
74101;DHT22;62462;52.530;21.682;2023-03-01T17:30:19;6.80;62.40
74101;DHT22;62462;52.530;21.682;2023-03-01T17:32:44;6.70;62.70
74101;DHT22;62462;52.530;21.682;2023-03-01T17:35:10;6.70;62.20
74101;DHT22;62462;52.530;21.682;2023-03-01T17:37:37;6.60;62.20
74101;DHT22;62462;52.530;21.682;2023-03-01T17:40:05;6.60;62.50
74101;DHT22;62462;52.530;21.682;2023-03-01T17:42:31;6.60;62.60
74101;DHT22;62462;52.530;21.682;2023-03-01T17:44:57;6.60;62.50
74101;DHT22;62462;52.530;21.682;2023-03-01T17:47:23;6.50;62.50
74101;DHT22;62462;52.530;21.682;2023-03-01T17:49:49;6.50;62.50
74101;DHT22;62462;52.530;21.682;2023-03-01T17:52:15;6.40;62.60
74101;DHT22;62462;52.530;21.682;2023-03-01T17:54:41;6.30;63.40
74101;DHT22;62462;52.530;21.682;2023-03-01T17:57:06;6.30;63.50
74101;DHT22;62462;52.530;21.682;2023-03-01T17:59:35;6.20;63.60